sensor_id;sensor_type;location;lat;lon;timestamp;P1;durP1;ratioP1;P2;durP2;ratioP2
36855;SDS011;22788;51.434;6.786;2023-10-08T00:02:06;9.05;;;5.10;;
36855;SDS011;22788;51.434;6.786;2023-10-08T00:04:31;9.27;;;3.55;;
36855;SDS011;22788;51.434;6.786;2023-10-08T00:06:57;7.47;;;3.70;;
36855;SDS011;22788;51.434;6.786;2023-10-08T00:09:23;5.93;;;3.95;;
36855;SDS011;22788;51.434;6.786;2023-10-08T00:11:49;6.38;;;3.58;;
36855;SDS011;22788;51.434;6.786;2023-10-08T00:14:14;7.20;;;3.72;;
36855;SDS011;22788;51.434;6.786;2023-10-08T00:16:41;6.60;;;3.85;;
36855;SDS011;22788;51.434;6.786;2023-10-08T00:19:07;8.95;;;4.00;;
36855;SDS011;22788;51.434;6.786;2023-10-08T00:21:32;6.70;;;3.65;;
36855;SDS011;22788;51.434;6.786;2023-10-08T00:23:58;6.68;;;3.65;;
36855;SDS011;22788;51.434;6.786;2023-10-08T00:26:23;4.25;;;3.40;;
36855;SDS011;22788;51.434;6.786;2023-10-08T00:28:49;4.95;;;3.63;;
36855;SDS011;22788;51.434;6.786;2023-10-08T00:31:15;5.68;;;3.65;;
36855;SDS011;22788;51.434;6.786;2023-10-08T00:33:42;5.80;;;3.58;;
36855;SDS011;22788;51.434;6.786;2023-10-08T00:36:07;5.18;;;3.30;;
36855;SDS011;22788;51.434;6.786;2023-10-08T00:38:33;5.07;;;3.65;;
36855;SDS011;22788;51.434;6.786;2023-10-08T00:40:59;5.78;;;3.20;;
36855;SDS011;22788;51.434;6.786;2023-10-08T00:43:30;6.10;;;3.95;;
36855;SDS011;22788;51.434;6.786;2023-10-08T00:45:56;4.93;;;3.65;;
36855;SDS011;22788;51.434;6.786;2023-10-08T00:48:22;6.63;;;4.20;;
36855;SDS011;22788;51.434;6.786;2023-10-08T00:50:49;5.63;;;3.80;;
36855;SDS011;22788;51.434;6.786;2023-10-08T00:53:15;6.20;;;3.80;;
36855;SDS011;22788;51.434;6.786;2023-10-08T00:55:40;7.40;;;4.30;;
36855;SDS011;22788;51.434;6.786;2023-10-08T00:58:06;6.75;;;3.47;;
36855;SDS011;22788;51.434;6.786;2023-10-08T01:00:32;6.13;;;3.65;;
36855;SDS011;22788;51.434;6.786;2023-10-08T01:02:57;6.65;;;3.65;;
36855;SDS011;22788;51.434;6.786;2023-10-08T01:05:23;5.88;;;3.33;;
36855;SDS011;22788;51.434;6.786;2023-10-08T01:07:51;5.32;;;3.53;;
36855;SDS011;22788;51.434;6.786;2023-10-08T01:10:18;4.07;;;3.30;;
36855;SDS011;22788;51.434;6.786;2023-10-08T01:12:44;5.28;;;3.72;;
36855;SDS011;22788;51.434;6.786;2023-10-08T01:15:10;5.32;;;3.88;;
36855;SDS011;22788;51.434;6.786;2023-10-08T01:17:35;7.97;;;3.90;;
36855;SDS011;22788;51.434;6.786;2023-10-08T01:20:01;7.20;;;3.72;;
36855;SDS011;22788;51.434;6.786;2023-10-08T01:22:28;5.45;;;3.92;;
36855;SDS011;22788;51.434;6.786;2023-10-08T01:24:53;8.55;;;4.05;;
36855;SDS011;22788;51.434;6.786;2023-10-08T01:27:19;4.88;;;3.42;;
36855;SDS011;22788;51.434;6.786;2023-10-08T01:29:45;7.93;;;3.72;;
36855;SDS011;22788;51.434;6.786;2023-10-08T01:32:10;5.03;;;3.88;;
36855;SDS011;22788;51.434;6.786;2023-10-08T01:34:36;6.07;;;3.75;;
36855;SDS011;22788;51.434;6.786;2023-10-08T01:37:02;6.10;;;3.85;;
36855;SDS011;22788;51.434;6.786;2023-10-08T01:39:29;5.43;;;3.22;;
36855;SDS011;22788;51.434;6.786;2023-10-08T01:41:55;6.68;;;4.18;;
36855;SDS011;22788;51.434;6.786;2023-10-08T01:44:20;7.72;;;3.75;;
36855;SDS011;22788;51.434;6.786;2023-10-08T01:46:46;5.28;;;3.33;;
36855;SDS011;22788;51.434;6.786;2023-10-08T01:49:11;5.15;;;3.88;;
36855;SDS011;22788;51.434;6.786;2023-10-08T01:51:37;5.75;;;3.55;;
36855;SDS011;22788;51.434;6.786;2023-10-08T01:54:03;6.72;;;3.33;;
36855;SDS011;22788;51.434;6.786;2023-10-08T01:56:30;6.25;;;4.20;;
36855;SDS011;22788;51.434;6.786;2023-10-08T01:58:55;5.07;;;2.95;;
36855;SDS011;22788;51.434;6.786;2023-10-08T02:01:21;6.95;;;4.03;;
36855;SDS011;22788;51.434;6.786;2023-10-08T02:03:48;9.07;;;4.10;;
36855;SDS011;22788;51.434;6.786;2023-10-08T02:06:15;4.65;;;3.58;;
36855;SDS011;22788;51.434;6.786;2023-10-08T02:08:42;8.13;;;4.07;;
36855;SDS011;22788;51.434;6.786;2023-10-08T02:11:09;6.50;;;3.95;;
36855;SDS011;22788;51.434;6.786;2023-10-08T02:13:38;6.13;;;3.67;;
36855;SDS011;22788;51.434;6.786;2023-10-08T02:16:06;7.10;;;3.70;;
36855;SDS011;22788;51.434;6.786;2023-10-08T02:18:33;3.80;;;3.22;;
36855;SDS011;22788;51.434;6.786;2023-10-08T02:21:01;5.25;;;3.28;;
36855;SDS011;22788;51.434;6.786;2023-10-08T02:23:28;5.80;;;3.55;;
36855;SDS011;22788;51.434;6.786;2023-10-08T02:25:55;7.07;;;3.75;;
36855;SDS011;22788;51.434;6.786;2023-10-08T02:28:22;4.82;;;3.20;;
36855;SDS011;22788;51.434;6.786;2023-10-08T02:30:52;6.32;;;3.50;;
36855;SDS011;22788;51.434;6.786;2023-10-08T02:33:20;6.28;;;3.55;;
36855;SDS011;22788;51.434;6.786;2023-10-08T02:35:47;6.03;;;3.60;;
36855;SDS011;22788;51.434;6.786;2023-10-08T02:38:17;6.82;;;4.20;;
36855;SDS011;22788;51.434;6.786;2023-10-08T02:40:44;6.28;;;3.72;;
36855;SDS011;22788;51.434;6.786;2023-10-08T02:43:11;5.57;;;3.08;;
36855;SDS011;22788;51.434;6.786;2023-10-08T02:45:42;7.70;;;4.03;;
36855;SDS011;22788;51.434;6.786;2023-10-08T02:48:13;6.00;;;3.47;;
36855;SDS011;22788;51.434;6.786;2023-10-08T02:50:41;4.35;;;2.90;;
36855;SDS011;22788;51.434;6.786;2023-10-08T02:53:08;5.00;;;3.42;;
36855;SDS011;22788;51.434;6.786;2023-10-08T02:55:35;7.88;;;3.42;;
36855;SDS011;22788;51.434;6.786;2023-10-08T02:58:03;6.22;;;3.90;;
36855;SDS011;22788;51.434;6.786;2023-10-08T03:00:30;6.78;;;3.85;;
36855;SDS011;22788;51.434;6.786;2023-10-08T03:02:57;7.53;;;3.72;;
36855;SDS011;22788;51.434;6.786;2023-10-08T03:05:27;4.70;;;3.50;;
36855;SDS011;22788;51.434;6.786;2023-10-08T03:07:54;6.70;;;3.83;;
36855;SDS011;22788;51.434;6.786;2023-10-08T03:10:22;4.60;;;3.63;;
36855;SDS011;22788;51.434;6.786;2023-10-08T03:12:49;6.53;;;3.75;;
36855;SDS011;22788;51.434;6.786;2023-10-08T03:15:16;7.63;;;3.95;;
36855;SDS011;22788;51.434;6.786;2023-10-08T03:17:43;5.53;;;3.90;;
36855;SDS011;22788;51.434;6.786;2023-10-08T03:20:09;5.93;;;3.67;;
36855;SDS011;22788;51.434;6.786;2023-10-08T03:22:36;4.72;;;3.53;;
36855;SDS011;22788;51.434;6.786;2023-10-08T03:25:02;5.70;;;3.70;;
36855;SDS011;22788;51.434;6.786;2023-10-08T03:27:28;4.97;;;3.47;;
36855;SDS011;22788;51.434;6.786;2023-10-08T03:29:54;6.07;;;3.92;;
36855;SDS011;22788;51.434;6.786;2023-10-08T03:32:19;6.28;;;3.35;;
36855;SDS011;22788;51.434;6.786;2023-10-08T03:34:45;5.65;;;3.35;;
36855;SDS011;22788;51.434;6.786;2023-10-08T03:37:12;5.57;;;3.65;;
36855;SDS011;22788;51.434;6.786;2023-10-08T03:39:40;7.85;;;3.67;;
36855;SDS011;22788;51.434;6.786;2023-10-08T03:42:05;6.85;;;3.97;;
36855;SDS011;22788;51.434;6.786;2023-10-08T03:44:31;4.60;;;3.28;;
36855;SDS011;22788;51.434;6.786;2023-10-08T03:46:56;6.25;;;3.80;;
36855;SDS011;22788;51.434;6.786;2023-10-08T03:49:22;5.85;;;3.85;;
36855;SDS011;22788;51.434;6.786;2023-10-08T03:51:48;6.07;;;3.75;;
36855;SDS011;22788;51.434;6.786;2023-10-08T03:54:14;8.02;;;3.60;;
36855;SDS011;22788;51.434;6.786;2023-10-08T03:56:42;5.20;;;3.58;;
36855;SDS011;22788;51.434;6.786;2023-10-08T03:59:08;8.23;;;4.47;;
36855;SDS011;22788;51.434;6.786;2023-10-08T04:01:33;4.75;;;3.25;;
36855;SDS011;22788;51.434;6.786;2023-10-08T04:03:59;4.32;;;3.60;;
36855;SDS011;22788;51.434;6.786;2023-10-08T04:06:26;5.32;;;3.45;;
36855;SDS011;22788;51.434;6.786;2023-10-08T04:08:52;5.70;;;3.83;;
36855;SDS011;22788;51.434;6.786;2023-10-08T04:11:18;7.25;;;4.05;;
36855;SDS011;22788;51.434;6.786;2023-10-08T04:13:45;5.32;;;3.60;;
36855;SDS011;22788;51.434;6.786;2023-10-08T04:16:10;5.63;;;3.72;;
36855;SDS011;22788;51.434;6.786;2023-10-08T04:18:36;5.20;;;3.70;;
36855;SDS011;22788;51.434;6.786;2023-10-08T04:21:01;6.50;;;3.60;;
36855;SDS011;22788;51.434;6.786;2023-10-08T04:23:27;6.05;;;3.42;;
36855;SDS011;22788;51.434;6.786;2023-10-08T04:25:53;6.65;;;3.40;;
36855;SDS011;22788;51.434;6.786;2023-10-08T04:28:18;7.00;;;4.00;;
36855;SDS011;22788;51.434;6.786;2023-10-08T04:30:46;5.60;;;3.40;;
36855;SDS011;22788;51.434;6.786;2023-10-08T04:33:12;4.93;;;3.65;;
36855;SDS011;22788;51.434;6.786;2023-10-08T04:35:38;4.60;;;3.40;;
36855;SDS011;22788;51.434;6.786;2023-10-08T04:38:05;7.28;;;4.13;;
36855;SDS011;22788;51.434;6.786;2023-10-08T04:40:31;8.00;;;3.85;;
36855;SDS011;22788;51.434;6.786;2023-10-08T04:42:57;5.55;;;3.50;;
36855;SDS011;22788;51.434;6.786;2023-10-08T04:45:22;5.35;;;3.50;;
36855;SDS011;22788;51.434;6.786;2023-10-08T04:47:49;6.60;;;3.50;;
36855;SDS011;22788;51.434;6.786;2023-10-08T04:50:15;5.25;;;3.85;;
36855;SDS011;22788;51.434;6.786;2023-10-08T04:52:40;4.97;;;2.90;;
36855;SDS011;22788;51.434;6.786;2023-10-08T04:55:06;5.75;;;3.65;;
36855;SDS011;22788;51.434;6.786;2023-10-08T04:57:32;5.38;;;3.60;;
36855;SDS011;22788;51.434;6.786;2023-10-08T04:59:57;5.40;;;3.90;;
36855;SDS011;22788;51.434;6.786;2023-10-08T05:02:23;6.55;;;3.78;;
36855;SDS011;22788;51.434;6.786;2023-10-08T05:04:50;6.22;;;3.60;;
36855;SDS011;22788;51.434;6.786;2023-10-08T05:07:16;6.13;;;3.38;;
36855;SDS011;22788;51.434;6.786;2023-10-08T05:09:43;5.35;;;3.85;;
36855;SDS011;22788;51.434;6.786;2023-10-08T05:12:11;7.28;;;3.80;;
36855;SDS011;22788;51.434;6.786;2023-10-08T05:14:37;7.38;;;3.97;;
36855;SDS011;22788;51.434;6.786;2023-10-08T05:17:03;7.70;;;4.15;;
36855;SDS011;22788;51.434;6.786;2023-10-08T05:19:31;4.88;;;3.58;;
36855;SDS011;22788;51.434;6.786;2023-10-08T05:21:58;9.18;;;4.40;;
36855;SDS011;22788;51.434;6.786;2023-10-08T05:24:23;4.57;;;3.70;;
36855;SDS011;22788;51.434;6.786;2023-10-08T05:26:49;5.55;;;3.70;;
36855;SDS011;22788;51.434;6.786;2023-10-08T05:29:14;6.05;;;3.63;;
36855;SDS011;22788;51.434;6.786;2023-10-08T05:31:40;6.85;;;3.60;;
36855;SDS011;22788;51.434;6.786;2023-10-08T05:34:06;5.03;;;3.58;;
36855;SDS011;22788;51.434;6.786;2023-10-08T05:36:31;10.77;;;4.22;;
36855;SDS011;22788;51.434;6.786;2023-10-08T05:38:58;7.35;;;3.75;;
36855;SDS011;22788;51.434;6.786;2023-10-08T05:41:24;5.97;;;3.35;;
36855;SDS011;22788;51.434;6.786;2023-10-08T05:43:49;6.22;;;3.88;;
36855;SDS011;22788;51.434;6.786;2023-10-08T05:46:15;4.47;;;3.30;;
36855;SDS011;22788;51.434;6.786;2023-10-08T05:48:41;6.05;;;3.70;;
36855;SDS011;22788;51.434;6.786;2023-10-08T05:51:06;7.18;;;3.65;;
36855;SDS011;22788;51.434;6.786;2023-10-08T05:53:32;5.25;;;3.20;;
36855;SDS011;22788;51.434;6.786;2023-10-08T05:56:05;5.15;;;3.28;;
36855;SDS011;22788;51.434;6.786;2023-10-08T05:58:31;5.97;;;3.88;;
36855;SDS011;22788;51.434;6.786;2023-10-08T06:00:56;4.53;;;3.47;;
36855;SDS011;22788;51.434;6.786;2023-10-08T06:03:22;5.53;;;3.45;;
36855;SDS011;22788;51.434;6.786;2023-10-08T06:05:47;8.70;;;3.95;;
36855;SDS011;22788;51.434;6.786;2023-10-08T06:08:13;9.35;;;4.30;;
36855;SDS011;22788;51.434;6.786;2023-10-08T06:10:39;5.30;;;4.07;;
36855;SDS011;22788;51.434;6.786;2023-10-08T06:13:06;9.52;;;4.22;;
36855;SDS011;22788;51.434;6.786;2023-10-08T06:15:35;5.55;;;3.50;;
36855;SDS011;22788;51.434;6.786;2023-10-08T06:18:01;6.75;;;4.30;;
36855;SDS011;22788;51.434;6.786;2023-10-08T06:20:26;5.50;;;3.33;;
36855;SDS011;22788;51.434;6.786;2023-10-08T06:22:52;4.75;;;3.40;;
36855;SDS011;22788;51.434;6.786;2023-10-08T06:25:18;5.25;;;3.53;;
36855;SDS011;22788;51.434;6.786;2023-10-08T06:27:43;6.53;;;3.60;;
36855;SDS011;22788;51.434;6.786;2023-10-08T06:30:11;6.50;;;3.70;;
36855;SDS011;22788;51.434;6.786;2023-10-08T06:32:37;7.15;;;4.07;;
36855;SDS011;22788;51.434;6.786;2023-10-08T06:35:03;5.20;;;3.30;;
36855;SDS011;22788;51.434;6.786;2023-10-08T06:37:29;6.18;;;3.67;;
36855;SDS011;22788;51.434;6.786;2023-10-08T06:39:54;6.43;;;3.90;;
36855;SDS011;22788;51.434;6.786;2023-10-08T06:42:20;6.20;;;3.55;;
36855;SDS011;22788;51.434;6.786;2023-10-08T06:44:46;6.45;;;3.45;;
36855;SDS011;22788;51.434;6.786;2023-10-08T06:47:13;7.43;;;3.42;;
36855;SDS011;22788;51.434;6.786;2023-10-08T06:49:38;8.07;;;4.53;;
36855;SDS011;22788;51.434;6.786;2023-10-08T06:52:04;5.20;;;3.20;;
36855;SDS011;22788;51.434;6.786;2023-10-08T06:54:30;7.05;;;4.05;;
36855;SDS011;22788;51.434;6.786;2023-10-08T06:56:55;8.90;;;4.68;;
36855;SDS011;22788;51.434;6.786;2023-10-08T06:59:21;7.20;;;3.83;;
36855;SDS011;22788;51.434;6.786;2023-10-08T07:01:47;4.82;;;3.25;;
36855;SDS011;22788;51.434;6.786;2023-10-08T07:04:13;6.43;;;3.70;;
36855;SDS011;22788;51.434;6.786;2023-10-08T07:06:39;5.82;;;3.60;;
36855;SDS011;22788;51.434;6.786;2023-10-08T07:09:06;4.50;;;3.30;;
36855;SDS011;22788;51.434;6.786;2023-10-08T07:11:32;7.97;;;3.97;;
36855;SDS011;22788;51.434;6.786;2023-10-08T07:13:58;6.60;;;3.53;;
36855;SDS011;22788;51.434;6.786;2023-10-08T07:16:23;5.20;;;3.50;;
36855;SDS011;22788;51.434;6.786;2023-10-08T07:18:49;7.80;;;3.85;;
36855;SDS011;22788;51.434;6.786;2023-10-08T07:21:16;7.07;;;4.07;;
36855;SDS011;22788;51.434;6.786;2023-10-08T07:23:42;7.70;;;3.75;;
36855;SDS011;22788;51.434;6.786;2023-10-08T07:26:07;6.28;;;3.60;;
36855;SDS011;22788;51.434;6.786;2023-10-08T07:28:33;6.38;;;4.07;;
36855;SDS011;22788;51.434;6.786;2023-10-08T07:30:58;5.78;;;3.50;;
36855;SDS011;22788;51.434;6.786;2023-10-08T07:33:24;7.38;;;4.03;;
36855;SDS011;22788;51.434;6.786;2023-10-08T07:35:50;9.02;;;3.47;;
36855;SDS011;22788;51.434;6.786;2023-10-08T07:38:17;6.22;;;3.38;;
36855;SDS011;22788;51.434;6.786;2023-10-08T07:40:43;4.95;;;3.28;;
36855;SDS011;22788;51.434;6.786;2023-10-08T07:43:08;6.57;;;4.32;;
36855;SDS011;22788;51.434;6.786;2023-10-08T07:45:34;10.23;;;4.57;;
36855;SDS011;22788;51.434;6.786;2023-10-08T07:48:00;6.20;;;3.65;;
36855;SDS011;22788;51.434;6.786;2023-10-08T07:50:25;12.05;;;4.82;;
36855;SDS011;22788;51.434;6.786;2023-10-08T07:52:51;12.02;;;5.57;;
36855;SDS011;22788;51.434;6.786;2023-10-08T07:55:18;6.40;;;3.63;;
36855;SDS011;22788;51.434;6.786;2023-10-08T07:57:43;9.60;;;4.60;;
36855;SDS011;22788;51.434;6.786;2023-10-08T08:00:10;6.82;;;3.80;;
36855;SDS011;22788;51.434;6.786;2023-10-08T08:02:36;7.38;;;4.15;;
36855;SDS011;22788;51.434;6.786;2023-10-08T08:05:02;12.82;;;6.03;;
36855;SDS011;22788;51.434;6.786;2023-10-08T08:07:27;12.93;;;5.03;;
36855;SDS011;22788;51.434;6.786;2023-10-08T08:09:53;11.95;;;6.63;;
36855;SDS011;22788;51.434;6.786;2023-10-08T08:12:21;19.92;;;6.82;;
36855;SDS011;22788;51.434;6.786;2023-10-08T08:14:47;11.93;;;5.55;;
36855;SDS011;22788;51.434;6.786;2023-10-08T08:17:13;11.07;;;5.88;;
36855;SDS011;22788;51.434;6.786;2023-10-08T08:19:38;15.52;;;7.05;;
36855;SDS011;22788;51.434;6.786;2023-10-08T08:22:04;17.33;;;8.32;;
36855;SDS011;22788;51.434;6.786;2023-10-08T08:24:30;12.45;;;6.53;;
36855;SDS011;22788;51.434;6.786;2023-10-08T08:26:55;8.70;;;4.68;;
36855;SDS011;22788;51.434;6.786;2023-10-08T08:29:22;13.90;;;7.30;;
36855;SDS011;22788;51.434;6.786;2023-10-08T08:31:48;15.85;;;7.63;;
36855;SDS011;22788;51.434;6.786;2023-10-08T08:34:13;11.00;;;6.57;;
36855;SDS011;22788;51.434;6.786;2023-10-08T08:36:39;17.98;;;8.00;;
36855;SDS011;22788;51.434;6.786;2023-10-08T08:39:05;12.35;;;5.97;;
36855;SDS011;22788;51.434;6.786;2023-10-08T08:41:30;14.02;;;6.90;;
36855;SDS011;22788;51.434;6.786;2023-10-08T08:43:56;9.75;;;4.88;;
36855;SDS011;22788;51.434;6.786;2023-10-08T08:46:26;16.48;;;8.05;;
36855;SDS011;22788;51.434;6.786;2023-10-08T08:48:54;19.65;;;8.23;;
36855;SDS011;22788;51.434;6.786;2023-10-08T08:51:22;14.90;;;6.25;;
36855;SDS011;22788;51.434;6.786;2023-10-08T08:53:48;16.63;;;7.20;;
36855;SDS011;22788;51.434;6.786;2023-10-08T08:56:14;8.40;;;4.95;;
36855;SDS011;22788;51.434;6.786;2023-10-08T08:58:39;11.10;;;5.75;;
36855;SDS011;22788;51.434;6.786;2023-10-08T09:01:06;19.55;;;9.77;;
36855;SDS011;22788;51.434;6.786;2023-10-08T09:03:35;11.77;;;5.93;;
36855;SDS011;22788;51.434;6.786;2023-10-08T09:06:01;9.30;;;5.00;;
36855;SDS011;22788;51.434;6.786;2023-10-08T09:08:27;16.10;;;7.95;;
36855;SDS011;22788;51.434;6.786;2023-10-08T09:10:53;9.93;;;5.30;;
36855;SDS011;22788;51.434;6.786;2023-10-08T09:13:22;11.82;;;5.93;;
36855;SDS011;22788;51.434;6.786;2023-10-08T09:15:48;12.98;;;6.18;;
36855;SDS011;22788;51.434;6.786;2023-10-08T09:18:14;8.15;;;5.60;;
36855;SDS011;22788;51.434;6.786;2023-10-08T09:20:41;15.30;;;8.45;;
36855;SDS011;22788;51.434;6.786;2023-10-08T09:23:07;12.68;;;7.45;;
36855;SDS011;22788;51.434;6.786;2023-10-08T09:25:33;8.25;;;5.47;;
36855;SDS011;22788;51.434;6.786;2023-10-08T09:27:59;12.48;;;6.15;;
36855;SDS011;22788;51.434;6.786;2023-10-08T09:30:25;12.60;;;5.70;;
36855;SDS011;22788;51.434;6.786;2023-10-08T09:32:53;13.50;;;6.13;;
36855;SDS011;22788;51.434;6.786;2023-10-08T09:35:18;10.68;;;6.22;;
36855;SDS011;22788;51.434;6.786;2023-10-08T09:37:46;11.63;;;6.43;;
36855;SDS011;22788;51.434;6.786;2023-10-08T09:40:12;9.73;;;5.65;;
36855;SDS011;22788;51.434;6.786;2023-10-08T09:42:39;10.00;;;5.55;;
36855;SDS011;22788;51.434;6.786;2023-10-08T09:45:06;10.50;;;5.57;;
36855;SDS011;22788;51.434;6.786;2023-10-08T09:47:32;9.88;;;5.55;;
36855;SDS011;22788;51.434;6.786;2023-10-08T09:50:03;9.18;;;5.30;;
36855;SDS011;22788;51.434;6.786;2023-10-08T09:52:33;8.77;;;5.45;;
36855;SDS011;22788;51.434;6.786;2023-10-08T09:55:05;9.43;;;5.55;;
36855;SDS011;22788;51.434;6.786;2023-10-08T09:57:34;9.30;;;5.07;;
36855;SDS011;22788;51.434;6.786;2023-10-08T09:59:59;11.57;;;5.35;;
36855;SDS011;22788;51.434;6.786;2023-10-08T10:02:25;10.55;;;5.82;;
36855;SDS011;22788;51.434;6.786;2023-10-08T10:04:51;12.40;;;5.50;;
36855;SDS011;22788;51.434;6.786;2023-10-08T10:07:17;10.60;;;5.15;;
36855;SDS011;22788;51.434;6.786;2023-10-08T10:09:44;8.80;;;5.00;;
36855;SDS011;22788;51.434;6.786;2023-10-08T10:12:12;13.15;;;6.05;;
36855;SDS011;22788;51.434;6.786;2023-10-08T10:14:43;8.45;;;5.20;;
36855;SDS011;22788;51.434;6.786;2023-10-08T10:17:14;10.43;;;4.95;;
36855;SDS011;22788;51.434;6.786;2023-10-08T10:19:44;11.52;;;5.72;;
36855;SDS011;22788;51.434;6.786;2023-10-08T10:22:10;8.70;;;5.00;;
36855;SDS011;22788;51.434;6.786;2023-10-08T10:24:36;11.50;;;5.72;;
36855;SDS011;22788;51.434;6.786;2023-10-08T10:27:13;8.48;;;5.32;;
36855;SDS011;22788;51.434;6.786;2023-10-08T10:29:39;11.70;;;7.53;;
36855;SDS011;22788;51.434;6.786;2023-10-08T10:32:05;9.98;;;6.38;;
36855;SDS011;22788;51.434;6.786;2023-10-08T10:34:30;9.95;;;6.43;;
36855;SDS011;22788;51.434;6.786;2023-10-08T10:36:56;8.48;;;5.78;;
36855;SDS011;22788;51.434;6.786;2023-10-08T10:39:23;9.55;;;6.38;;
36855;SDS011;22788;51.434;6.786;2023-10-08T10:41:50;10.38;;;6.22;;
36855;SDS011;22788;51.434;6.786;2023-10-08T10:44:17;10.70;;;6.43;;
36855;SDS011;22788;51.434;6.786;2023-10-08T10:46:43;9.70;;;6.35;;
36855;SDS011;22788;51.434;6.786;2023-10-08T10:49:09;8.48;;;6.20;;
36855;SDS011;22788;51.434;6.786;2023-10-08T10:51:35;7.68;;;6.57;;
36855;SDS011;22788;51.434;6.786;2023-10-08T10:54:02;9.50;;;7.13;;
36855;SDS011;22788;51.434;6.786;2023-10-08T10:56:28;10.18;;;6.90;;
36855;SDS011;22788;51.434;6.786;2023-10-08T10:58:53;9.95;;;6.68;;
36855;SDS011;22788;51.434;6.786;2023-10-08T11:01:25;14.27;;;8.40;;
36855;SDS011;22788;51.434;6.786;2023-10-08T11:03:52;11.80;;;6.43;;
36855;SDS011;22788;51.434;6.786;2023-10-08T11:06:18;11.68;;;7.40;;
36855;SDS011;22788;51.434;6.786;2023-10-08T11:08:44;11.23;;;7.28;;
36855;SDS011;22788;51.434;6.786;2023-10-08T11:11:09;12.02;;;7.03;;
36855;SDS011;22788;51.434;6.786;2023-10-08T11:13:35;11.27;;;8.10;;
36855;SDS011;22788;51.434;6.786;2023-10-08T11:16:02;10.55;;;6.60;;
36855;SDS011;22788;51.434;6.786;2023-10-08T11:18:30;11.93;;;7.05;;
36855;SDS011;22788;51.434;6.786;2023-10-08T11:21:05;12.60;;;7.38;;
36855;SDS011;22788;51.434;6.786;2023-10-08T11:23:32;11.27;;;7.40;;
36855;SDS011;22788;51.434;6.786;2023-10-08T11:25:59;11.88;;;6.82;;
36855;SDS011;22788;51.434;6.786;2023-10-08T11:28:25;8.75;;;6.70;;
36855;SDS011;22788;51.434;6.786;2023-10-08T11:30:51;10.93;;;6.85;;
36855;SDS011;22788;51.434;6.786;2023-10-08T11:33:17;9.98;;;6.65;;
36855;SDS011;22788;51.434;6.786;2023-10-08T11:35:55;9.45;;;6.45;;
36855;SDS011;22788;51.434;6.786;2023-10-08T11:38:25;9.45;;;6.32;;
36855;SDS011;22788;51.434;6.786;2023-10-08T11:40:51;8.98;;;6.88;;
36855;SDS011;22788;51.434;6.786;2023-10-08T11:43:17;10.48;;;5.90;;
36855;SDS011;22788;51.434;6.786;2023-10-08T11:45:42;7.72;;;5.68;;
36855;SDS011;22788;51.434;6.786;2023-10-08T11:48:08;9.98;;;5.90;;
36855;SDS011;22788;51.434;6.786;2023-10-08T11:50:34;11.43;;;5.80;;
36855;SDS011;22788;51.434;6.786;2023-10-08T11:53:01;6.47;;;4.60;;
36855;SDS011;22788;51.434;6.786;2023-10-08T11:55:27;10.27;;;5.68;;
36855;SDS011;22788;51.434;6.786;2023-10-08T11:57:53;8.30;;;4.63;;
36855;SDS011;22788;51.434;6.786;2023-10-08T12:00:19;9.20;;;5.07;;
36855;SDS011;22788;51.434;6.786;2023-10-08T12:02:45;8.88;;;5.00;;
36855;SDS011;22788;51.434;6.786;2023-10-08T12:05:11;7.07;;;5.35;;
36855;SDS011;22788;51.434;6.786;2023-10-08T12:07:37;6.65;;;4.90;;
36855;SDS011;22788;51.434;6.786;2023-10-08T12:10:05;9.73;;;5.03;;
36855;SDS011;22788;51.434;6.786;2023-10-08T12:12:31;8.25;;;5.30;;
36855;SDS011;22788;51.434;6.786;2023-10-08T12:14:57;5.80;;;4.82;;
36855;SDS011;22788;51.434;6.786;2023-10-08T12:17:22;7.15;;;5.18;;
36855;SDS011;22788;51.434;6.786;2023-10-08T12:19:48;8.45;;;4.78;;
36855;SDS011;22788;51.434;6.786;2023-10-08T12:22:13;7.95;;;4.90;;
36855;SDS011;22788;51.434;6.786;2023-10-08T12:24:39;8.77;;;4.72;;
36855;SDS011;22788;51.434;6.786;2023-10-08T12:27:06;7.38;;;5.15;;
36855;SDS011;22788;51.434;6.786;2023-10-08T12:29:31;7.10;;;4.40;;
36855;SDS011;22788;51.434;6.786;2023-10-08T12:31:57;7.50;;;4.63;;
36855;SDS011;22788;51.434;6.786;2023-10-08T12:34:23;6.55;;;4.72;;
36855;SDS011;22788;51.434;6.786;2023-10-08T12:36:48;7.45;;;4.57;;
36855;SDS011;22788;51.434;6.786;2023-10-08T12:39:14;7.68;;;4.80;;
36855;SDS011;22788;51.434;6.786;2023-10-08T12:41:40;6.97;;;4.65;;
36855;SDS011;22788;51.434;6.786;2023-10-08T12:44:07;9.52;;;4.75;;
36855;SDS011;22788;51.434;6.786;2023-10-08T12:46:33;6.82;;;4.43;;
36855;SDS011;22788;51.434;6.786;2023-10-08T12:48:58;6.97;;;4.20;;
36855;SDS011;22788;51.434;6.786;2023-10-08T12:51:25;7.57;;;4.15;;
36855;SDS011;22788;51.434;6.786;2023-10-08T12:53:51;6.93;;;4.63;;
36855;SDS011;22788;51.434;6.786;2023-10-08T12:56:16;8.60;;;4.55;;
36855;SDS011;22788;51.434;6.786;2023-10-08T12:58:42;9.38;;;4.75;;
36855;SDS011;22788;51.434;6.786;2023-10-08T13:01:10;7.35;;;4.53;;
36855;SDS011;22788;51.434;6.786;2023-10-08T13:03:35;8.60;;;5.18;;
36855;SDS011;22788;51.434;6.786;2023-10-08T13:06:01;6.10;;;4.03;;
36855;SDS011;22788;51.434;6.786;2023-10-08T13:08:27;6.25;;;4.40;;
36855;SDS011;22788;51.434;6.786;2023-10-08T13:10:52;7.93;;;4.70;;
36855;SDS011;22788;51.434;6.786;2023-10-08T13:13:18;7.90;;;4.70;;
36855;SDS011;22788;51.434;6.786;2023-10-08T13:15:44;8.25;;;4.55;;
36855;SDS011;22788;51.434;6.786;2023-10-08T13:18:11;9.80;;;4.97;;
36855;SDS011;22788;51.434;6.786;2023-10-08T13:20:36;6.28;;;4.72;;
36855;SDS011;22788;51.434;6.786;2023-10-08T13:23:02;9.40;;;4.68;;
36855;SDS011;22788;51.434;6.786;2023-10-08T13:25:28;7.35;;;4.60;;
36855;SDS011;22788;51.434;6.786;2023-10-08T13:27:53;7.15;;;4.65;;
36855;SDS011;22788;51.434;6.786;2023-10-08T13:30:19;7.15;;;3.88;;
36855;SDS011;22788;51.434;6.786;2023-10-08T13:32:45;6.28;;;4.10;;
36855;SDS011;22788;51.434;6.786;2023-10-08T13:35:12;8.80;;;5.15;;
36855;SDS011;22788;51.434;6.786;2023-10-08T13:37:37;6.35;;;4.30;;
36855;SDS011;22788;51.434;6.786;2023-10-08T13:40:03;7.25;;;4.68;;
36855;SDS011;22788;51.434;6.786;2023-10-08T13:42:30;5.95;;;4.32;;
36855;SDS011;22788;51.434;6.786;2023-10-08T13:44:55;5.82;;;4.03;;
36855;SDS011;22788;51.434;6.786;2023-10-08T13:47:21;9.82;;;4.47;;
36855;SDS011;22788;51.434;6.786;2023-10-08T13:49:47;8.35;;;4.72;;
36855;SDS011;22788;51.434;6.786;2023-10-08T13:52:17;6.63;;;4.75;;
36855;SDS011;22788;51.434;6.786;2023-10-08T13:54:42;5.93;;;4.07;;
36855;SDS011;22788;51.434;6.786;2023-10-08T13:57:08;9.13;;;4.55;;
36855;SDS011;22788;51.434;6.786;2023-10-08T13:59:34;6.97;;;4.80;;
36855;SDS011;22788;51.434;6.786;2023-10-08T14:01:59;7.75;;;4.70;;
36855;SDS011;22788;51.434;6.786;2023-10-08T14:04:25;6.35;;;4.35;;
36855;SDS011;22788;51.434;6.786;2023-10-08T14:06:51;6.15;;;3.85;;
36855;SDS011;22788;51.434;6.786;2023-10-08T14:09:20;5.85;;;4.10;;
36855;SDS011;22788;51.434;6.786;2023-10-08T14:11:46;8.90;;;5.07;;
36855;SDS011;22788;51.434;6.786;2023-10-08T14:14:12;5.50;;;4.00;;
36855;SDS011;22788;51.434;6.786;2023-10-08T14:16:38;6.15;;;5.07;;
36855;SDS011;22788;51.434;6.786;2023-10-08T14:19:04;8.65;;;4.68;;
36855;SDS011;22788;51.434;6.786;2023-10-08T14:21:30;6.55;;;4.30;;
36855;SDS011;22788;51.434;6.786;2023-10-08T14:23:56;9.57;;;5.55;;
36855;SDS011;22788;51.434;6.786;2023-10-08T14:26:23;5.82;;;4.10;;
36855;SDS011;22788;51.434;6.786;2023-10-08T14:28:49;6.53;;;4.70;;
36855;SDS011;22788;51.434;6.786;2023-10-08T14:31:14;7.22;;;4.07;;
36855;SDS011;22788;51.434;6.786;2023-10-08T14:33:40;6.70;;;4.80;;
36855;SDS011;22788;51.434;6.786;2023-10-08T14:36:06;10.75;;;6.15;;
36855;SDS011;22788;51.434;6.786;2023-10-08T14:38:32;6.65;;;4.68;;
36855;SDS011;22788;51.434;6.786;2023-10-08T14:40:57;6.85;;;4.78;;